Latest Weather Observations for Dartmoor

IDV60801

Issued at 2:32 pm EDT Wednesday 22 February 2017 (issued every 30 minutes, with the page automatically refreshed every 10 minutes)

About weather observations | Map of weather stations | Latest weather observations for VIC | Other Formats
Station Details ID: 090194 Name: DARTMOOR Lat: -37.92 Lon: 141.26 Height: 51.0 m
Data from the previous 72 hours. | See also: Recent months at Dartmoor
Date/Time
EDT
Temp
°C
App
Temp
°C
Dew
Point
°C
Rel
Hum
%
Delta-T
°C
Wind Press
QNH
hPa
Press
MSL
hPa
Rain since
9am
mm
Dir  Spd
km/h
Gust
km/h
Spd
kts
Gust
kts
22/02:30pm 33.4 25.5 4.2 16 15.4 NNW 35 54 19 29 1005.5 1005.4 -
22/02:00pm 32.6 24.0 2.6 15 15.3 NNW 37 61 20 33 1006.2 1006.1 -
22/01:47pm 32.3 24.2 3.3 16 14.9 NNW 35 63 19 34 1006.3 1006.2 -
22/01:30pm 31.7 24.1 3.7 17 14.4 N 33 48 18 26 1006.7 1006.6 -
22/01:00pm 30.8 23.4 3.8 18 13.9 N 32 52 17 28 1007.2 1007.1 -
22/12:42pm 30.4 23.4 4.2 19 13.5 N 30 50 16 27 1007.8 1007.7 -
22/12:30pm 28.5 21.0 3.4 20 12.6 N 32 46 17 25 1007.8 1007.7 -
22/12:00pm 28.6 21.5 3.5 20 12.7 N 30 50 16 27 1008.6 1008.4 -
22/11:58am 29.0 22.5 4.5 21 12.6 N 28 48 15 26 1008.7 1008.5 -
22/11:30am 27.1 19.7 4.2 23 11.6 N 32 46 17 25 1008.8 1008.6 -
22/11:01am 26.5 19.8 3.7 23 11.4 NNE 28 48 15 26 1008.9 1008.7 -
22/11:00am 26.6 19.7 4.4 24 11.2 NNE 30 48 16 26 1008.8 1008.6 -
22/10:52am 26.1 19.5 4.0 24 11.0 NNE 28 46 15 25 1009.1 1008.9 -
22/10:30am 25.4 19.1 4.0 25 10.7 NNE 26 41 14 22 1009.2 1009.0 -
22/10:00am 24.1 17.6 4.5 28 9.8 NNE 28 46 15 25 1009.8 1009.6 -
22/09:54am 23.9 17.3 4.3 28 9.7 NNE 28 46 15 25 1009.8 1009.6 -
22/09:30am 23.0 16.8 4.5 30 9.1 NNE 26 39 14 21 1010.2 1010.0 -
22/09:00am 22.1 16.7 4.7 32 8.6 NNE 22 37 12 20 1010.7 1010.5 0.0
22/08:30am 20.2 15.8 4.7 36 7.5 NNE 17 26 9 14 1011.0 1010.8 0.0
22/08:00am 18.7 14.3 4.5 39 6.8 NNE 17 24 9 13 1011.0 1010.8 0.0
22/07:30am 17.8 13.3 4.0 40 6.5 NNE 17 22 9 12 1010.8 1010.6 0.0
22/07:00am 17.9 13.7 3.8 39 6.6 NNE 15 22 8 12 1010.8 1010.6 0.0
22/06:30am 17.6 13.4 3.9 40 6.4 NNE 15 24 8 13 1010.9 1010.7 0.0
22/06:00am 17.1 13.8 4.4 43 6.0 NE 11 19 6 10 1011.0 1010.8 0.0
22/05:30am 16.6 13.3 4.3 44 5.8 NE 11 15 6 8 1011.1 1010.9 0.0
22/05:00am 17.0 13.3 4.7 44 5.9 NE 13 19 7 10 1011.3 1011.1 0.0
22/04:30am 16.0 12.5 5.6 50 5.0 NE 13 17 7 9 1011.4 1011.2 0.0
22/04:00am 14.5 12.3 6.3 58 4.0 NE 7 9 4 5 1011.6 1011.4 0.0
22/03:30am 14.1 11.6 6.7 61 3.6 NE 9 11 5 6 1012.0 1011.8 0.0
22/03:00am 13.7 11.8 9.0 73 2.4 NE 9 11 5 6 1012.4 1012.3 0.0
22/02:30am 13.0 11.9 9.8 81 1.6 ENE 6 6 3 3 1012.8 1012.7 0.0
22/02:00am 13.5 12.6 10.7 83 1.5 ENE 6 6 3 3 1013.3 1013.2 0.0
22/01:30am 13.2 11.8 10.9 86 1.2 ENE 9 11 5 6 1013.6 1013.5 0.0
22/01:00am 13.3 12.3 11.0 86 1.2 ENE 7 7 4 4 1014.1 1014.0 0.0
22/12:30am 13.7 12.8 11.2 85 1.3 ENE 7 9 4 5 1014.5 1014.4 0.0
22/12:00am 14.4 13.2 11.6 83 1.5 ENE 9 13 5 7 1014.9 1014.8 0.0
 
Date/Time
EDT
Temp
°C
App
Temp
°C
Dew
Point
°C
Rel
Hum
%
Delta-T
°C
Wind Press
QNH
hPa
Press
MSL
hPa
Rain since
9am
mm
Dir  Spd
km/h
Gust
km/h
Spd
kts
Gust
kts
21/11:30pm 14.8 13.2 11.6 81 1.7 ENE 11 13 6 7 1015.2 1015.1 0.0
21/11:00pm 15.2 13.6 11.6 79 1.9 ENE 11 13 6 7 1015.3 1015.2 0.0
21/10:30pm 16.1 14.6 11.9 76 2.3 E 11 17 6 9 1015.7 1015.6 0.0
21/10:00pm 16.1 14.9 11.7 75 2.4 E 9 13 5 7 1015.9 1015.8 0.0
21/09:30pm 16.8 14.9 11.7 72 2.8 E 13 19 7 10 1015.8 1015.7 0.0
21/09:00pm 17.3 14.6 11.6 69 3.1 E 17 24 9 13 1015.6 1015.5 0.0
21/08:30pm 18.4 15.6 11.5 64 3.8 E 17 20 9 11 1015.5 1015.4 0.0
21/08:00pm 20.3 17.2 11.5 57 4.9 ESE 19 28 10 15 1015.3 1015.2 0.0
21/07:30pm 24.8 22.2 6.1 30 9.6 NE 9 15 5 8 1015.1 1015.0 0.0
21/07:00pm 25.3 22.3 6.0 29 9.9 NE 11 17 6 9 1015.1 1015.0 0.0
21/06:30pm 25.4 23.4 7.1 31 9.6 NE 7 13 4 7 1015.3 1015.2 0.0
21/06:00pm 25.2 23.0 6.4 30 9.7 NE 7 13 4 7 1015.5 1015.4 0.0
21/05:30pm 24.9 22.2 5.7 29 9.8 NNE 9 17 5 9 1016.0 1015.9 0.0
21/05:00pm 25.1 23.5 6.3 30 9.7 SE 4 6 2 3 1016.3 1016.2 0.0
21/04:30pm 24.7 23.1 8.2 35 8.8 W 6 7 3 4 1016.6 1016.5 0.0
21/04:00pm 23.6 21.5 6.8 34 8.7 N 7 13 4 7 1017.1 1017.0 0.0
21/03:30pm 23.5 21.8 7.6 36 8.3 N 6 15 3 8 1017.5 1017.4 0.0
21/03:00pm 23.2 20.5 7.3 36 8.3 NE 11 20 6 11 1018.1 1018.0 0.0
21/02:30pm 22.7 20.8 7.7 38 7.9 N 7 15 4 8 1018.6 1018.5 0.0
21/02:00pm 21.3 19.6 7.5 41 7.1 NE 6 17 3 9 1019.2 1019.1 0.0
21/01:30pm 21.6 20.1 9.2 45 6.6 N 7 13 4 7 1019.4 1019.3 0.0
21/01:00pm 20.2 18.6 8.8 48 6.0 ENE 7 15 4 8 1019.8 1019.7 0.0
21/12:30pm 19.7 18.2 8.4 48 5.9 E 6 13 3 7 1020.6 1020.5 0.0
21/12:00pm 19.2 17.7 8.5 50 5.5 NNE 6 11 3 6 1020.9 1020.8 0.0
21/11:30am 17.9 15.9 8.7 55 4.8 NE 9 17 5 9 1021.0 1020.9 0.0
21/11:00am 17.1 15.2 9.0 59 4.2 ENE 9 15 5 8 1021.3 1021.2 0.0
21/10:30am 16.4 13.8 9.3 63 3.7 ENE 13 20 7 11 1021.4 1021.3 0.0
21/10:00am 14.3 13.8 12.0 86 1.2 ENE 6 9 3 5 1021.3 1021.2 0.0
21/09:30am 11.4 10.8 10.5 94 0.5 NE 4 6 2 3 1021.4 1021.3 0.0
21/09:00am 9.5 8.5 8.9 96 0.3 NE 4 6 2 3 1021.0 1020.9 0.4
21/08:30am 7.9 6.5 7.3 96 0.3 ENE 4 4 2 2 1021.2 1021.1 0.4
21/08:00am 7.0 6.2 6.4 96 0.3 CALM 0 0 0 0 1021.0 1020.9 0.4
21/07:30am 5.4 4.2 4.8 96 0.3 CALM 0 0 0 0 1020.7 1020.6 0.4
21/07:00am 5.4 3.9 4.8 96 0.3 ENE 2 2 1 1 1020.2 1020.1 0.4
21/06:30am 5.8 4.0 5.2 96 0.3 NE 4 4 2 2 1020.0 1019.9 0.4
21/06:00am 5.8 4.7 5.2 96 0.3 CALM 0 0 0 0 1019.7 1019.6 0.4
21/05:30am 6.0 4.9 5.3 95 0.3 CALM 0 0 0 0 1019.7 1019.6 0.4
21/05:00am 6.4 5.4 5.7 95 0.3 CALM 0 0 0 0 1019.6 1019.5 0.4
21/04:30am 6.5 5.5 5.8 95 0.3 CALM 0 0 0 0 1019.3 1019.2 0.4
21/04:00am 7.0 6.2 6.3 95 0.3 CALM 0 0 0 0 1019.3 1019.2 0.4
21/03:30am 7.2 6.4 6.5 95 0.3 CALM 0 0 0 0 1019.2 1019.1 0.4
21/03:00am 7.5 6.7 6.6 94 0.4 CALM 0 0 0 0 1019.3 1019.2 0.4
21/02:30am 7.8 7.1 6.9 94 0.4 CALM 0 0 0 0 1019.5 1019.4 0.4
21/02:00am 8.3 7.7 7.2 93 0.5 CALM 0 0 0 0 1019.4 1019.3 0.4
21/01:30am 8.7 7.8 7.6 93 0.5 NE 2 2 1 1 1019.6 1019.5 0.4
21/01:00am 9.4 8.6 8.2 92 0.6 SW 2 4 1 2 1019.8 1019.7 0.4
21/12:30am 9.9 9.6 8.7 92 0.6 CALM 0 0 0 0 1019.9 1019.8 0.4
21/12:00am 10.1 9.8 8.5 90 0.8 CALM 0 0 0 0 1019.9 1019.8 0.4
 
Date/Time
EDT
Temp
°C
App
Temp
°C
Dew
Point
°C
Rel
Hum
%
Delta-T
°C
Wind Press
QNH
hPa
Press
MSL
hPa
Rain since
9am
mm
Dir  Spd
km/h
Gust
km/h
Spd
kts
Gust
kts
20/11:30pm 11.0 10.9 9.3 89 0.9 CALM 0 0 0 0 1019.9 1019.8 0.4
20/11:00pm 11.5 11.4 9.4 87 1.1 CALM 0 0 0 0 1019.9 1019.8 0.4
20/10:30pm 12.4 12.4 9.8 84 1.3 CALM 0 0 0 0 1019.6 1019.5 0.4
20/10:00pm 13.4 13.6 10.4 82 1.6 CALM 0 0 0 0 1019.6 1019.5 0.4
20/09:30pm 13.3 12.5 9.7 79 1.8 SW 4 6 2 3 1019.6 1019.5 0.4
20/09:00pm 14.2 13.0 9.4 73 2.5 S 6 6 3 3 1019.3 1019.2 0.4
20/08:30pm 14.4 13.0 9.4 72 2.6 S 7 11 4 6 1019.0 1018.9 0.4
20/08:00pm 14.8 13.4 9.4 70 2.8 SSW 7 13 4 7 1018.7 1018.6 0.4
20/07:30pm 15.3 12.7 9.2 67 3.1 SW 13 20 7 11 1018.2 1018.1 0.4
20/07:00pm 16.9 14.2 9.1 60 4.0 SSW 13 19 7 10 1017.8 1017.7 0.4
20/06:30pm 16.7 13.2 8.7 59 4.1 SW 17 24 9 13 1017.6 1017.5 0.4
20/06:00pm 16.2 12.5 7.9 58 4.2 SSW 17 26 9 14 1017.5 1017.4 0.4
20/05:30pm 17.0 13.7 7.9 55 4.6 SW 15 24 8 13 1017.3 1017.2 0.4
20/05:00pm 16.6 12.4 8.1 57 4.3 SSW 20 30 11 16 1017.0 1016.9 0.4
20/04:30pm 18.4 14.6 9.7 57 4.6 SSW 20 30 11 16 1016.8 1016.7 0.4
20/04:00pm 17.3 12.9 9.0 58 4.3 SW 22 32 12 17 1017.0 1016.9 0.4
20/03:30pm 17.8 13.4 8.9 56 4.6 SSW 22 32 12 17 1016.8 1016.7 0.4
20/03:00pm 18.2 13.3 10.1 59 4.3 SSW 26 37 14 20 1016.9 1016.8 0.4
20/02:30pm 18.5 13.9 8.2 51 5.3 SSW 22 33 12 18 1016.9 1016.8 0.4
20/02:00pm 18.2 13.5 7.9 51 5.3 SSW 22 37 12 20 1016.9 1016.8 0.4
20/01:30pm 17.6 14.1 8.7 56 4.6 SSW 17 28 9 15 1017.0 1016.9 0.4
20/01:00pm 16.5 12.4 7.7 56 4.4 SSW 19 28 10 15 1017.0 1016.9 0.2
20/12:30pm 16.4 12.3 7.9 57 4.3 SW 19 26 10 14 1017.2 1017.1 0.2
20/12:00pm 17.0 13.4 8.4 57 4.4 SSW 17 24 9 13 1017.2 1017.1 0.2
20/11:30am 15.6 11.5 8.6 63 3.6 SSW 20 28 11 15 1017.2 1017.1 0.2
20/11:00am 15.8 13.2 9.5 66 3.3 SSW 13 19 7 10 1017.1 1017.0 0.2
20/10:30am 13.4 12.0 10.9 85 1.3 SW 9 13 5 7 1017.1 1017.0 0.2
20/10:00am 12.7 10.9 10.8 88 1.0 WSW 11 20 6 11 1016.9 1016.8 0.2
20/09:30am 13.2 12.7 12.1 93 0.6 S 6 9 3 5 1016.6 1016.5 0.0
20/09:00am 12.3 12.1 11.7 96 0.3 W 4 6 2 3 1016.4 1016.3 7.8
20/08:30am 11.4 11.7 10.9 97 0.3 CALM 0 2 0 1 1016.0 1015.9 7.8
20/08:00am 10.2 10.2 9.7 97 0.3 CALM 0 0 0 0 1015.6 1015.5 7.8
20/07:30am 9.3 9.0 8.7 96 0.3 CALM 0 4 0 2 1015.1 1015.0 7.8
20/07:00am 9.5 8.1 8.9 96 0.3 NW 6 9 3 5 1014.8 1014.7 7.8
20/06:30am 8.9 8.5 8.3 96 0.3 CALM 0 0 0 0 1014.6 1014.5 7.8
20/06:00am 8.8 7.6 8.2 96 0.3 NW 4 4 2 2 1014.4 1014.3 7.8
20/05:30am 8.8 8.4 8.2 96 0.3 CALM 0 0 0 0 1014.2 1014.1 7.8
20/05:00am 9.5 8.9 8.9 96 0.3 NW 2 4 1 2 1014.1 1014.0 7.8
20/04:30am 9.5 8.5 8.9 96 0.3 NW 4 7 2 4 1014.1 1014.0 7.8
20/04:00am 9.5 8.1 8.7 95 0.4 NNW 6 9 3 5 1014.1 1014.0 7.8
20/03:30am 9.7 8.7 8.9 95 0.4 ENE 4 4 2 2 1014.0 1013.9 7.8
20/03:00am 9.4 7.8 8.6 95 0.4 NW 7 9 4 5 1014.1 1014.0 7.8
20/02:30am 9.3 8.2 8.4 94 0.4 WNW 4 4 2 2 1014.0 1013.9 7.8
20/02:00am 9.8 8.7 8.6 92 0.6 NW 4 6 2 3 1014.1 1014.0 7.8
20/01:30am 10.9 9.6 9.3 90 0.8 SW 6 9 3 5 1014.3 1014.2 7.8
20/01:00am 10.9 9.8 8.3 84 1.3 SSW 4 6 2 3 1014.2 1014.1 7.4
20/12:30am 11.6 9.7 9.2 85 1.2 SSW 9 13 5 7 1014.2 1014.1 7.4
20/12:00am 11.1 10.2 9.4 89 0.9 SW 4 6 2 3 1014.4 1014.3 7.4
 
Date/Time
EDT
Temp
°C
App
Temp
°C
Dew
Point
°C
Rel
Hum
%
Delta-T
°C
Wind Press
QNH
hPa
Press
MSL
hPa
Rain since
9am
mm
Dir  Spd
km/h
Gust
km/h
Spd
kts
Gust
kts
19/11:30pm 11.6 10.4 9.5 87 1.1 SSE 6 11 3 6 1014.4 1014.3 7.4
19/11:00pm 11.2 9.9 9.3 88 1.0 SW 6 11 3 6 1014.2 1014.1 7.0
19/10:30pm 11.3 10.1 9.7 90 0.8 SW 6 11 3 6 1014.3 1014.2 7.0
19/10:00pm 11.1 9.7 9.5 90 0.8 SSW 7 11 4 6 1014.2 1014.1 7.0
19/09:30pm 11.1 8.9 9.2 88 1.0 SW 11 22 6 12 1014.0 1013.9 7.0
19/09:00pm 10.9 9.1 9.3 90 0.8 SW 9 17 5 9 1013.6 1013.5 7.0
19/08:30pm 10.9 7.5 9.2 89 0.8 SSW 17 28 9 15 1013.5 1013.4 7.0
19/08:00pm 11.8 9.1 8.8 82 1.5 SW 13 22 7 12 1013.1 1013.0 6.0
19/07:30pm 12.8 9.2 8.5 75 2.1 SW 17 32 9 17 1012.8 1012.7 6.0
19/07:00pm 12.0 8.3 9.4 84 1.3 S 19 35 10 19 1012.4 1012.3 6.0
19/06:30pm 13.0 9.0 9.1 77 2.0 SW 20 32 11 17 1012.2 1012.1 5.6
19/06:00pm 13.5 10.1 9.0 74 2.3 SSW 17 24 9 13 1012.1 1011.9 5.0
19/05:30pm 14.9 9.0 7.5 61 3.7 SW 28 43 15 23 1011.9 1011.7 4.8
19/05:00pm 15.5 10.8 7.8 60 3.9 WSW 22 39 12 21 1011.8 1011.6 4.8
19/04:30pm 14.8 9.8 8.1 64 3.4 SW 24 43 13 23 1011.7 1011.5 4.8
19/04:00pm 13.2 8.4 8.9 75 2.2 SW 24 52 13 28 1011.8 1011.6 4.8
19/03:56pm 12.8 9.3 8.9 77 2.0 SW 17 52 9 28 1011.7 1011.5 4.8
19/03:30pm 11.8 8.1 9.4 85 1.2 WSW 19 30 10 16 1011.9 1011.7 4.0
19/03:00pm 13.8 8.4 7.8 67 3.0 SSW 26 39 14 21 1012.0 1011.8 2.0

Other Formats:

Comma delimited format used in spreadsheet applications
http://www.bom.gov.au/fwo/IDV60801/IDV60801.95822.axf

JavaScript Object Notation format (JSON) in row-major order
http://www.bom.gov.au/fwo/IDV60801/IDV60801.95822.json